Time;durP1;ratioP1;P1;durP2;ratioP2;P2;SDS_P1;SDS_P2;PMS_P1;PMS_P2;Temp;Humidity;BMP_temperature;BMP_pressure;BME280_temperature;BME280_humidity;BME280_pressure;Samples;Min_cycle;Max_cycle;Signal;HPM_P1;HPM_P2
2023/01/23 00:01:29;;;;;;;1.05;0.50;;;17.10;1.00;;;;;;5012437;28;20053;-40
2023/01/23 00:03:57;;;;;;;1.88;0.60;;;17.10;1.00;;;;;;5012307;28;20050;-41
2023/01/23 00:06:24;;;;;;;1.38;0.60;;;17.00;1.00;;;;;;5012662;28;20038;-40
2023/01/23 00:08:51;;;;;;;1.08;0.40;;;17.00;1.00;;;;;;5012690;28;20045;-40
2023/01/23 00:11:21;;;;;;;2.53;0.90;;;16.90;1.00;;;;;;5012460;28;20057;-41
2023/01/23 00:13:48;;;;;;;5.03;0.93;;;16.90;1.00;;;;;;5012009;28;20125;-40
2023/01/23 00:16:20;;;;;;;1.25;0.60;;;16.90;1.00;;;;;;5012611;28;20042;-41
2023/01/23 00:18:47;;;;;;;1.38;0.52;;;16.90;1.00;;;;;;5012483;28;20493;-40
2023/01/23 00:21:17;;;;;;;1.30;0.60;;;16.80;1.00;;;;;;5012396;28;20053;-41
2023/01/23 00:23:53;;;;;;;2.97;0.90;;;16.80;1.00;;;;;;5012579;28;20038;-79
2023/01/23 00:26:25;;;;;;;2.50;1.13;;;16.80;1.00;;;;;;5009345;28;20128;-40
2023/01/23 00:28:52;;;;;;;1.00;0.53;;;16.80;1.00;;;;;;5012288;28;20042;-38
2023/01/23 00:31:23;;;;;;;3.22;0.90;;;16.70;1.00;;;;;;4994704;28;20057;-38
2023/01/23 00:33:56;;;;;;;1.10;0.60;;;16.70;1.00;;;;;;5010580;28;20137;-38
2023/01/23 00:36:26;;;;;;;1.58;0.73;;;16.70;1.00;;;;;;5012154;28;20077;-38
2023/01/23 00:38:54;;;;;;;1.83;0.65;;;16.70;1.00;;;;;;4994591;28;20045;-39
2023/01/23 00:41:21;;;;;;;3.83;0.80;;;16.60;1.00;;;;;;5012145;28;20544;-38
2023/01/23 00:43:50;;;;;;;1.77;0.50;;;16.60;1.00;;;;;;5011666;28;20065;-38
2023/01/23 00:46:19;;;;;;;1.42;0.65;;;16.60;1.00;;;;;;5012131;28;20523;-39
2023/01/23 00:48:46;;;;;;;1.23;0.57;;;16.60;1.00;;;;;;4994426;28;20057;-39
2023/01/23 00:51:13;;;;;;;1.52;0.50;;;16.60;1.00;;;;;;4995737;28;20053;-39
2023/01/23 00:53:40;;;;;;;2.05;0.80;;;16.50;1.00;;;;;;5018143;28;20042;-39
2023/01/23 00:56:07;;;;;;;1.63;0.70;;;16.50;1.00;;;;;;5000815;28;20068;-40
2023/01/23 00:58:34;;;;;;;1.20;0.63;;;16.50;1.00;;;;;;5017282;28;20048;-38
2023/01/23 01:01:02;;;;;;;1.00;0.50;;;16.50;1.00;;;;;;5000928;28;20034;-38
2023/01/23 01:03:28;;;;;;;2.70;0.73;;;16.40;1.00;;;;;;5000252;28;20073;-38
2023/01/23 01:05:56;;;;;;;2.45;0.60;;;16.40;1.00;;;;;;5018474;28;20133;-39
2023/01/23 01:08:22;;;;;;;3.15;0.80;;;16.40;1.00;;;;;;5018158;28;20049;-39
2023/01/23 01:10:49;;;;;;;0.90;0.60;;;16.40;1.00;;;;;;5000724;28;20073;-39
2023/01/23 01:13:20;;;;;;;0.80;0.40;;;16.40;1.00;;;;;;5018024;28;20048;-39
2023/01/23 01:15:48;;;;;;;3.03;0.63;;;16.30;1.00;;;;;;5000752;28;20046;-39
2023/01/23 01:18:16;;;;;;;4.03;0.40;;;16.30;1.00;;;;;;5018194;28;20038;-39
2023/01/23 01:20:44;;;;;;;1.30;0.52;;;16.30;1.00;;;;;;5000560;28;20042;-38
2023/01/23 01:23:12;;;;;;;1.60;0.73;;;16.30;1.00;;;;;;5018068;28;20065;-39
2023/01/23 01:25:39;;;;;;;1.05;0.40;;;16.30;1.00;;;;;;5018119;28;20057;-39
2023/01/23 01:28:06;;;;;;;3.65;0.88;;;16.30;1.00;;;;;;5000593;28;20038;-39
2023/01/23 01:30:33;;;;;;;1.13;0.50;;;16.20;1.00;;;;;;5000409;28;20056;-39
2023/01/23 01:33:00;;;;;;;3.47;0.60;;;16.20;1.00;;;;;;5000215;28;20038;-40
2023/01/23 01:35:27;;;;;;;1.38;0.40;;;16.20;1.00;;;;;;5018048;28;20045;-40
2023/01/23 01:37:54;;;;;;;1.90;0.88;;;16.20;1.00;;;;;;5000712;28;20042;-39
2023/01/23 01:40:23;;;;;;;3.20;0.68;;;16.10;1.00;;;;;;5000409;28;20056;-39
2023/01/23 01:42:59;;;;;;;2.67;0.90;;;16.10;1.00;;;;;;5000346;28;20434;-39
2023/01/23 01:45:58;;;;;;;3.03;0.73;;;16.10;1.00;;;;;;5000286;28;20083;-39
2023/01/23 01:48:34;;;;;;;2.20;0.60;;;16.10;1.00;;;;;;4997734;28;20058;-39
2023/01/23 01:51:06;;;;;;;1.40;0.40;;;16.10;1.00;;;;;;5000393;28;20054;-38
2023/01/23 01:53:34;;;;;;;1.33;0.45;;;16.00;1.00;;;;;;5017631;28;20046;-39
2023/01/23 01:56:01;;;;;;;1.65;0.70;;;16.00;1.00;;;;;;5018086;28;20405;-38
2023/01/23 01:58:29;;;;;;;1.33;0.50;;;16.00;1.00;;;;;;5000457;28;20576;-38
2023/01/23 02:00:56;;;;;;;1.58;0.50;;;16.00;1.00;;;;;;5016634;28;20046;-38
2023/01/23 02:03:24;;;;;;;1.45;0.60;;;16.00;1.00;;;;;;4997590;28;20042;-39
2023/01/23 02:05:51;;;;;;;1.88;0.63;;;16.00;1.00;;;;;;4996895;28;20046;-38
2023/01/23 02:08:40;;;;;;;2.17;0.77;;;15.90;1.00;;;;;;4997109;28;20050;-38
2023/01/23 02:11:07;;;;;;;1.42;0.60;;;15.90;1.00;;;;;;4997242;28;20080;-38
2023/01/23 02:13:37;;;;;;;1.23;0.40;;;15.90;1.00;;;;;;5014584;28;20038;-39
2023/01/23 02:16:09;;;;;;;0.82;0.35;;;15.90;1.00;;;;;;5014492;28;20684;-38
2023/01/23 02:18:41;;;;;;;1.58;0.52;;;15.90;1.00;;;;;;4996900;28;20045;-38
2023/01/23 02:21:08;;;;;;;3.70;1.02;;;15.80;1.00;;;;;;4996865;28;20137;-38
2023/01/23 02:23:40;;;;;;;1.67;0.63;;;15.80;1.00;;;;;;5014250;28;20124;-39
2023/01/23 02:26:17;;;;;;;2.80;0.90;;;15.80;1.00;;;;;;4996686;28;20041;-39
2023/01/23 02:28:47;;;;;;;0.90;0.47;;;15.80;1.00;;;;;;5014341;28;20041;-39
2023/01/23 02:31:19;;;;;;;2.63;0.40;;;15.80;1.00;;;;;;4996733;28;20053;-39
2023/01/23 02:33:52;;;;;;;1.60;0.85;;;15.80;1.00;;;;;;4996410;28;20112;-39
2023/01/23 02:36:24;;;;;;;0.90;0.50;;;15.70;1.00;;;;;;5014157;28;20038;-39
2023/01/23 02:39:03;;;;;;;1.30;0.47;;;15.70;1.00;;;;;;4996808;28;20048;-39
2023/01/23 02:41:36;;;;;;;1.33;0.60;;;15.70;1.00;;;;;;4996538;28;20054;-39
2023/01/23 02:44:11;;;;;;;1.50;0.60;;;15.70;1.00;;;;;;4996220;28;20049;-39
2023/01/23 02:46:41;;;;;;;1.55;0.47;;;15.70;1.00;;;;;;4996462;28;20527;-39
2023/01/23 02:49:08;;;;;;;1.38;0.63;;;15.60;1.00;;;;;;4996349;28;20104;-39
2023/01/23 02:51:36;;;;;;;1.27;0.82;;;15.60;1.00;;;;;;4996474;28;20080;-39
2023/01/23 02:54:03;;;;;;;1.95;0.40;;;15.60;1.00;;;;;;5013474;28;20091;-39
2023/01/23 02:56:32;;;;;;;1.75;0.57;;;15.60;1.00;;;;;;4996386;28;20536;-39
2023/01/23 03:01:45;;;;;;;0.90;0.50;;;15.60;1.00;;;;;;4996158;28;20138;-39
2023/01/23 03:04:12;;;;;;;0.90;0.40;;;15.60;1.00;;;;;;4995880;28;20054;-40
2023/01/23 03:06:39;;;;;;;2.92;0.68;;;15.50;1.00;;;;;;4996161;28;20088;-39
2023/01/23 03:09:10;;;;;;;2.17;0.60;;;15.50;1.00;;;;;;4996114;28;20386;-39
2023/01/23 03:11:40;;;;;;;2.25;0.70;;;15.50;1.00;;;;;;4995813;28;20049;-39
2023/01/23 03:14:10;;;;;;;1.63;0.82;;;15.50;1.00;;;;;;4995394;28;20085;-39
2023/01/23 03:16:37;;;;;;;0.57;0.30;;;15.50;1.00;;;;;;5013494;28;20101;-39
2023/01/23 03:19:07;;;;;;;1.23;0.45;;;15.50;1.00;;;;;;4995783;28;20049;-39
2023/01/23 03:21:39;;;;;;;3.97;0.70;;;15.40;1.00;;;;;;4995844;28;20456;-39
2023/01/23 03:24:12;;;;;;;1.13;0.30;;;15.40;1.00;;;;;;5012923;28;20038;-39
2023/01/23 03:26:41;;;;;;;2.38;1.05;;;15.40;1.00;;;;;;4995897;28;20058;-39
2023/01/23 03:32:03;;;;;;;1.63;0.63;;;15.40;1.00;;;;;;4995591;28;20100;-39
2023/01/23 03:34:31;;;;;;;1.58;0.50;;;15.40;1.00;;;;;;4995244;28;20212;-39
2023/01/23 03:36:59;;;;;;;2.58;0.95;;;15.40;1.00;;;;;;4995397;28;20077;-39
2023/01/23 03:42:14;;;;;;;2.05;0.60;;;15.30;1.00;;;;;;4995413;28;20104;-39
2023/01/23 03:44:41;;;;;;;1.42;0.60;;;15.30;1.00;;;;;;5012839;28;20042;-39
2023/01/23 03:47:08;;;;;;;1.35;0.50;;;15.30;1.00;;;;;;5013170;28;20409;-39
2023/01/23 03:49:36;;;;;;;2.67;0.75;;;15.30;1.00;;;;;;4995123;28;20479;-39
2023/01/23 03:52:03;;;;;;;1.08;0.57;;;15.30;1.00;;;;;;4995139;28;20092;-37
2023/01/23 03:54:30;;;;;;;1.33;0.35;;;15.30;1.00;;;;;;4994787;28;20053;-38
2023/01/23 03:56:57;;;;;;;2.45;0.40;;;15.20;1.00;;;;;;5012726;28;20034;-38
2023/01/23 03:59:54;;;;;;;1.20;0.30;;;15.20;1.00;;;;;;4999569;28;20054;-39
2023/01/23 04:02:25;;;;;;;2.25;1.23;;;15.20;1.00;;;;;;4994827;28;20049;-39
2023/01/23 04:04:52;;;;;;;1.17;0.47;;;15.20;1.00;;;;;;5012589;28;20120;-39
2023/01/23 04:07:19;;;;;;;1.65;0.50;;;15.20;1.00;;;;;;4994974;28;20200;-38
2023/01/23 04:09:46;;;;;;;1.67;0.85;;;15.20;1.00;;;;;;4995170;28;20080;-38
2023/01/23 04:12:13;;;;;;;1.58;0.50;;;15.20;1.00;;;;;;5012399;28;20046;-38
2023/01/23 04:14:46;;;;;;;1.15;0.40;;;15.20;1.00;;;;;;4994567;28;20093;-39
2023/01/23 04:17:13;;;;;;;1.65;0.43;;;15.20;1.00;;;;;;5012280;28;20061;-37
2023/01/23 04:19:40;;;;;;;1.23;0.50;;;15.10;1.00;;;;;;4994841;28;20046;-39
2023/01/23 04:22:08;;;;;;;2.25;0.50;;;15.10;1.00;;;;;;4994616;28;20045;-38
2023/01/23 04:24:41;;;;;;;2.50;0.70;;;15.10;1.00;;;;;;4994455;28;20046;-38
2023/01/23 04:27:08;;;;;;;1.13;0.40;;;15.10;1.00;;;;;;4994780;28;20065;-38
2023/01/23 04:29:36;;;;;;;1.08;0.40;;;15.10;1.00;;;;;;4994600;28;20056;-39
2023/01/23 04:32:03;;;;;;;2.25;0.50;;;15.10;1.00;;;;;;4994594;28;20046;-38
2023/01/23 04:34:34;;;;;;;1.17;0.73;;;15.10;1.00;;;;;;4994525;28;20050;-38
2023/01/23 04:37:01;;;;;;;2.53;0.70;;;15.00;1.00;;;;;;5012141;28;20086;-38
2023/01/23 04:39:29;;;;;;;2.42;0.57;;;15.00;1.00;;;;;;4994589;28;20108;-38
2023/01/23 04:41:57;;;;;;;0.80;0.50;;;15.00;1.00;;;;;;4994494;28;20093;-38
2023/01/23 04:44:43;;;;;;;1.27;0.70;;;15.00;1.00;;;;;;4994254;28;20042;-38
2023/01/23 04:47:30;;;;;;;1.33;0.98;;;15.00;1.00;;;;;;4991226;28;20049;-38
2023/01/23 04:49:57;;;;;;;2.42;0.65;;;15.00;1.00;;;;;;4994489;28;20141;-38
2023/01/23 04:52:24;;;;;;;1.00;0.50;;;15.00;1.00;;;;;;4994263;28;20096;-38
2023/01/23 04:54:55;;;;;;;1.10;0.30;;;14.90;1.00;;;;;;5011626;28;20065;-38
2023/01/23 04:57:22;;;;;;;1.42;0.55;;;15.00;1.00;;;;;;5011943;28;20034;-39
2023/01/23 04:59:54;;;;;;;1.35;0.50;;;14.90;1.00;;;;;;4994508;28;20050;-39
2023/01/23 05:02:21;;;;;;;1.58;0.60;;;14.90;1.00;;;;;;4994089;28;20038;-38
2023/01/23 05:04:49;;;;;;;1.70;0.68;;;14.90;1.00;;;;;;5011831;28;20046;-38
2023/01/23 05:07:15;;;;;;;1.58;0.88;;;14.90;1.00;;;;;;4994084;28;20045;-39
2023/01/23 05:09:56;;;;;;;2.97;0.85;;;14.90;1.00;;;;;;4990600;28;20049;-38
2023/01/23 05:12:23;;;;;;;3.10;0.60;;;14.90;1.00;;;;;;4994109;28;20050;-39
2023/01/23 05:14:50;;;;;;;2.80;0.63;;;14.80;1.00;;;;;;5000131;28;20128;-39
2023/01/23 05:17:16;;;;;;;2.50;0.70;;;14.80;1.00;;;;;;5011580;28;20042;-39
2023/01/23 05:19:49;;;;;;;2.45;0.77;;;14.80;1.00;;;;;;5026991;28;20212;-39
2023/01/23 05:22:16;;;;;;;2.30;1.10;;;14.80;1.00;;;;;;5031183;28;20103;-39
2023/01/23 05:24:44;;;;;;;11.88;0.85;;;14.80;1.00;;;;;;5013552;28;20505;-39
2023/01/23 05:27:11;;;;;;;4.50;1.63;;;14.80;1.00;;;;;;5008123;28;20080;-39
2023/01/23 05:29:41;;;;;;;2.40;0.90;;;14.70;1.00;;;;;;4988638;28;20042;-39
2023/01/23 05:32:13;;;;;;;6.30;1.30;;;14.70;1.00;;;;;;5013504;28;20560;-39
2023/01/23 05:35:14;;;;;;;6.25;0.90;;;14.70;1.00;;;;;;5020706;28;20322;-38
2023/01/23 05:37:42;;;;;;;4.28;0.93;;;14.70;1.00;;;;;;5013743;28;20461;-38
2023/01/23 05:40:12;;;;;;;6.00;0.90;;;14.70;1.00;;;;;;5017028;28;20046;-39
2023/01/23 05:43:13;;;;;;;;;;;14.70;1.00;;;;;;5035017;28;20050;-38
2023/01/23 05:46:00;;;;;;;4.10;0.60;;;14.70;1.00;;;;;;5034936;28;19927;-39
2023/01/23 05:48:49;;;;;;;2.58;1.45;;;14.70;1.00;;;;;;5034288;28;20068;-38
2023/01/23 05:51:18;;;;;;;4.28;1.00;;;14.70;1.00;;;;;;5017104;28;20160;-39
2023/01/23 05:53:45;;;;;;;2.50;0.80;;;14.60;1.00;;;;;;5017106;28;20052;-39
2023/01/23 05:56:13;;;;;;;5.55;1.27;;;14.60;1.00;;;;;;5006842;28;20088;-38
2023/01/23 05:58:59;;;;;;;6.00;1.35;;;14.60;1.00;;;;;;5032964;28;20041;-38
2023/01/23 06:01:37;;;;;;;2.88;1.08;;;14.60;1.00;;;;;;5034611;28;20485;-38
2023/01/23 06:04:24;;;;;;;2.42;0.80;;;14.60;1.00;;;;;;5034820;28;20076;-38
2023/01/23 06:07:02;;;;;;;3.35;0.80;;;14.60;1.00;;;;;;5016931;28;20045;-38
2023/01/23 06:09:30;;;;;;;3.47;1.17;;;14.60;1.00;;;;;;5016998;28;20049;-38
2023/01/23 06:11:57;;;;;;;2.17;0.95;;;14.50;1.00;;;;;;5016709;28;20092;-39
2023/01/23 06:14:24;;;;;;;1.48;0.85;;;14.60;1.00;;;;;;5016558;28;20080;-39
2023/01/23 06:16:51;;;;;;;2.03;0.90;;;14.50;1.00;;;;;;5016771;28;20127;-39
2023/01/23 06:19:19;;;;;;;1.80;0.75;;;14.60;1.00;;;;;;5016727;28;20099;-40
2023/01/23 06:21:46;;;;;;;3.60;0.85;;;14.50;1.00;;;;;;5016573;28;20484;-39
2023/01/23 06:24:13;;;;;;;1.00;0.68;;;14.50;1.00;;;;;;5000186;28;20136;-39
2023/01/23 06:26:40;;;;;;;3.75;1.15;;;14.50;1.00;;;;;;5016625;28;20045;-40
2023/01/23 06:29:06;;;;;;;2.72;0.80;;;14.50;1.00;;;;;;5016520;28;20049;-39
2023/01/23 06:31:34;;;;;;;1.58;0.93;;;14.50;1.00;;;;;;5016420;28;20053;-39
2023/01/23 06:34:01;;;;;;;1.70;0.80;;;14.50;1.00;;;;;;5015793;28;20080;-40
2023/01/23 06:36:34;;;;;;;5.20;1.63;;;14.50;1.00;;;;;;5033997;28;20033;-40
2023/01/23 06:39:02;;;;;;;2.42;0.77;;;14.50;1.00;;;;;;5016137;28;20117;-40
2023/01/23 06:41:35;;;;;;;;;;;14.50;1.00;;;;;;5016596;28;20133;-39
2023/01/23 06:44:06;;;;;;;5.15;1.02;;;14.50;1.00;;;;;;5015899;28;19957;-39
2023/01/23 06:46:34;;;;;;;4.65;1.00;;;14.40;1.00;;;;;;5016067;28;20057;-39
2023/01/23 06:49:01;;;;;;;4.53;0.95;;;14.40;1.00;;;;;;5033413;28;20468;-39
2023/01/23 06:51:34;;;;;;;;;;;14.40;1.00;;;;;;5016251;28;20077;-39
2023/01/23 06:54:01;;;;;;;4.22;1.45;;;14.40;1.00;;;;;;5032136;28;19921;-39
2023/01/23 06:56:28;;;;;;;1.92;1.10;;;14.40;1.00;;;;;;5033705;28;20037;-39
2023/01/23 06:58:55;;;;;;;2.75;1.00;;;14.40;1.00;;;;;;5015877;28;20073;-39
2023/01/23 07:01:29;;;;;;;2.15;0.90;;;14.30;1.00;;;;;;5015721;28;20037;-40
2023/01/23 07:04:16;;;;;;;1.98;0.90;;;14.30;1.00;;;;;;5015331;28;20065;-38
2023/01/23 07:06:56;;;;;;;2.55;1.00;;;14.30;1.00;;;;;;5015544;28;20111;-38
2023/01/23 07:09:23;;;;;;;2.33;1.00;;;14.30;1.00;;;;;;5015684;28;20153;-38
2023/01/23 07:12:00;;;;;;;2.78;0.88;;;14.30;1.00;;;;;;5015866;28;20136;-39
2023/01/23 07:14:29;;;;;;;2.03;1.20;;;14.30;1.00;;;;;;5015289;28;20088;-39
2023/01/23 07:16:57;;;;;;;3.22;1.08;;;14.30;1.00;;;;;;5015619;28;20068;-39
2023/01/23 07:19:24;;;;;;;2.45;0.90;;;14.30;1.00;;;;;;5033493;28;20087;-39
2023/01/23 07:21:52;;;;;;;3.28;1.63;;;14.30;1.00;;;;;;5015339;28;20077;-39
2023/01/23 07:24:19;;;;;;;2.35;1.35;;;14.30;1.00;;;;;;5032772;28;20493;-39
2023/01/23 07:26:45;;;;;;;4.03;1.33;;;14.30;1.00;;;;;;5033052;28;20136;-39
2023/01/23 07:29:13;;;;;;;3.05;1.30;;;14.20;1.00;;;;;;5033347;28;20072;-39
2023/01/23 07:31:39;;;;;;;3.05;1.27;;;14.30;1.00;;;;;;5033037;28;20493;-39
2023/01/23 07:34:06;;;;;;;4.90;1.00;;;14.30;1.00;;;;;;5032524;28;20053;-39
2023/01/23 07:36:33;;;;;;;3.53;1.23;;;14.20;1.00;;;;;;5033169;28;20069;-39
2023/01/23 07:39:00;;;;;;;2.28;1.13;;;14.20;1.00;;;;;;5032777;28;20041;-39
2023/01/23 07:41:26;;;;;;;2.15;0.90;;;14.20;1.00;;;;;;5032682;28;20459;-39
2023/01/23 07:43:53;;;;;;;3.22;0.70;;;14.20;1.00;;;;;;5032433;28;20447;-39
2023/01/23 07:46:22;;;;;;;1.60;0.95;;;14.20;1.00;;;;;;5014910;28;20107;-39
2023/01/23 07:48:49;;;;;;;3.10;0.70;;;14.20;1.00;;;;;;5031711;28;20076;-39
2023/01/23 07:51:16;;;;;;;1.50;0.82;;;14.20;1.00;;;;;;5027854;28;20091;-38
2023/01/23 07:53:42;;;;;;;1.33;0.85;;;14.20;1.00;;;;;;5028585;28;20413;-38
2023/01/23 07:56:09;;;;;;;1.75;0.95;;;14.20;1.00;;;;;;5025532;28;20717;-38
2023/01/23 07:58:36;;;;;;;7.25;1.30;;;14.10;1.00;;;;;;5025764;28;20103;-39
2023/01/23 08:01:08;;;;;;;2.60;0.98;;;14.10;1.00;;;;;;5026055;28;20513;-39
2023/01/23 08:03:34;;;;;;;3.58;1.27;;;14.10;1.00;;;;;;5010029;28;20083;-39
2023/01/23 08:06:01;;;;;;;4.07;2.03;;;14.10;1.00;;;;;;5027922;28;20046;-38
2023/01/23 08:08:29;;;;;;;2.42;0.95;;;14.10;1.00;;;;;;5032041;28;20045;-38
2023/01/23 08:10:56;;;;;;;1.95;0.93;;;14.10;1.00;;;;;;5032349;28;20418;-39
2023/01/23 08:13:23;;;;;;;4.07;1.55;;;14.10;1.00;;;;;;5032078;28;20053;-39
2023/01/23 08:15:52;;;;;;;3.53;1.38;;;14.10;1.00;;;;;;5032146;28;20073;-39
2023/01/23 08:18:19;;;;;;;2.72;0.98;;;14.10;1.00;;;;;;5032249;28;20049;-39
2023/01/23 08:20:52;;;;;;;1.85;1.15;;;14.10;1.00;;;;;;5032249;28;20069;-39
2023/01/23 08:23:18;;;;;;;3.47;1.50;;;14.00;1.00;;;;;;5031983;28;20073;-39
2023/01/23 08:25:45;;;;;;;2.47;1.45;;;14.10;1.00;;;;;;5032067;28;20489;-39
2023/01/23 08:28:12;;;;;;;3.75;1.42;;;14.10;1.00;;;;;;5014450;28;20095;-39
2023/01/23 08:30:39;;;;;;;2.00;0.80;;;14.10;1.00;;;;;;5032239;28;20420;-39
2023/01/23 08:33:05;;;;;;;1.85;0.90;;;14.20;1.00;;;;;;5032121;28;20042;-39
2023/01/23 08:35:32;;;;;;;2.30;0.98;;;14.30;1.00;;;;;;5031833;28;20041;-39
2023/01/23 08:38:01;;;;;;;1.45;0.82;;;14.40;1.00;;;;;;5031615;28;20128;-39
2023/01/23 08:40:28;;;;;;;2.92;1.00;;;14.50;1.00;;;;;;5031740;28;20042;-39
2023/01/23 08:42:55;;;;;;;1.45;0.70;;;14.60;1.00;;;;;;5031646;28;20049;-40
2023/01/23 08:45:24;;;;;;;2.17;0.80;;;14.70;1.00;;;;;;5031843;28;20748;-39
2023/01/23 08:47:51;;;;;;;3.67;1.10;;;14.80;1.00;;;;;;5032548;28;20488;-39
2023/01/23 08:50:18;;;;;;;2.58;0.90;;;14.90;1.00;;;;;;5031683;28;20065;-40
2023/01/23 08:52:45;;;;;;;1.70;1.00;;;14.90;1.00;;;;;;5031596;28;20468;-39
2023/01/23 08:55:12;;;;;;;3.70;1.00;;;15.00;1.00;;;;;;5031608;28;20120;-39
2023/01/23 08:57:39;;;;;;;2.58;1.23;;;15.10;1.00;;;;;;5031610;28;20050;-39
2023/01/23 09:00:06;;;;;;;2.28;0.88;;;15.10;1.00;;;;;;5032131;28;20117;-38
2023/01/23 09:02:33;;;;;;;2.42;0.90;;;15.20;1.00;;;;;;5031330;28;20128;-39
2023/01/23 09:05:00;;;;;;;1.85;1.25;;;15.20;1.00;;;;;;5031495;28;20042;-39
2023/01/23 09:07:26;;;;;;;2.88;0.85;;;15.20;1.00;;;;;;5031450;28;20050;-38
2023/01/23 09:09:53;;;;;;;2.92;1.23;;;15.30;1.00;;;;;;5031579;28;20042;-38
2023/01/23 09:12:20;;;;;;;3.35;0.60;;;15.30;1.00;;;;;;5014626;28;20511;-39
2023/01/23 09:14:47;;;;;;;2.92;1.15;;;15.30;1.00;;;;;;5035245;28;20071;-38
2023/01/23 09:17:14;;;;;;;1.65;0.70;;;15.30;1.00;;;;;;5035418;28;20069;-38
2023/01/23 09:19:40;;;;;;;2.45;0.90;;;15.30;1.00;;;;;;5035534;28;20041;-39
2023/01/23 09:22:07;;;;;;;3.53;1.08;;;15.30;1.00;;;;;;5035260;28;20488;-39
2023/01/23 09:24:34;;;;;;;3.58;0.93;;;15.30;1.00;;;;;;5035227;28;20117;-39
2023/01/23 09:27:01;;;;;;;4.68;1.42;;;15.30;1.00;;;;;;5035267;28;20045;-40
2023/01/23 09:29:28;;;;;;;2.50;1.35;;;15.30;1.00;;;;;;5018069;28;20046;-40
2023/01/23 09:31:54;;;;;;;3.45;1.23;;;15.30;1.00;;;;;;5035058;28;20428;-39
2023/01/23 09:34:21;;;;;;;2.90;1.40;;;15.30;1.00;;;;;;5034798;28;20084;-39
2023/01/23 09:36:48;;;;;;;4.00;1.52;;;15.30;1.00;;;;;;5017321;28;20065;-39
2023/01/23 09:39:15;;;;;;;4.10;1.23;;;15.30;1.00;;;;;;5017597;28;20049;-39
2023/01/23 09:41:44;;;;;;;2.40;1.00;;;15.30;1.00;;;;;;5035243;28;20405;-39
2023/01/23 09:44:24;;;;;;;9.88;1.15;;;15.20;1.00;;;;;;5017176;28;20040;-40
2023/01/23 09:46:53;;;;;;;3.65;1.10;;;15.20;1.00;;;;;;5034992;28;20046;-40
2023/01/23 09:49:28;;;;;;;1.80;0.90;;;15.20;1.00;;;;;;5034866;28;20128;-39
2023/01/23 09:52:04;;;;;;;1.85;0.90;;;15.20;1.00;;;;;;5016927;28;20068;-40
2023/01/23 09:54:54;;;;;;;1.73;0.95;;;15.20;1.00;;;;;;5034417;28;20522;-39
2023/01/23 09:57:24;;;;;;;3.47;1.33;;;15.20;1.00;;;;;;5034443;28;20518;-39
2023/01/23 10:00:04;;;;;;;1.33;0.70;;;15.10;1.00;;;;;;5034897;28;20516;-40
2023/01/23 10:02:32;;;;;;;2.28;1.08;;;15.10;1.00;;;;;;5034509;28;20043;-40
2023/01/23 10:05:18;;;;;;;3.35;0.93;;;15.10;1.00;;;;;;5034468;28;20100;-39
2023/01/23 10:08:45;;;;;;;2.95;1.20;;;15.10;1.00;;;;;;5034688;28;20049;-37
2023/01/23 10:11:40;;;;;;;2.75;0.98;;;15.00;1.00;;;;;;4973133;28;20051;-40
2023/01/23 10:15:09;;;;;;;1.70;1.13;;;15.00;1.00;;;;;;4973008;28;20085;-40
2023/01/23 10:18:24;;;;;;;1.65;1.15;;;15.00;1.00;;;;;;5002685;28;20052;-39
2023/01/23 10:21:04;;;;;;;2.03;1.10;;;14.90;1.00;;;;;;5034226;28;20079;-39
2023/01/23 10:24:16;;;;;;;3.08;1.33;;;14.90;1.00;;;;;;5033720;28;20080;-39
2023/01/23 10:27:17;;;;;;;3.67;1.30;;;14.90;1.00;;;;;;4976692;28;20109;-40
2023/01/23 10:30:19;;;;;;;2.38;1.17;;;14.90;1.00;;;;;;5034183;28;20121;-39
2023/01/23 10:33:37;;;;;;;4.45;1.25;;;14.90;1.00;;;;;;5033521;28;20401;-39
2023/01/23 10:36:16;;;;;;;1.85;1.00;;;14.80;1.00;;;;;;5001581;28;20175;-40
2023/01/23 10:39:13;;;;;;;1.65;1.08;;;14.80;1.00;;;;;;5034247;28;20057;-38
2023/01/23 10:41:40;;;;;;;4.43;1.60;;;14.80;1.00;;;;;;5034056;28;20049;-38
2023/01/23 10:44:15;;;;;;;3.45;1.73;;;14.80;1.00;;;;;;5033617;28;20118;-39
2023/01/23 10:46:55;;;;;;;2.03;1.08;;;14.80;1.00;;;;;;5033731;28;20071;-39
2023/01/23 10:49:36;;;;;;;3.13;1.00;;;14.80;1.00;;;;;;5033698;28;20046;-38
2023/01/23 10:52:52;;;;;;;2.45;0.98;;;14.70;1.00;;;;;;5033219;28;20416;-39
2023/01/23 10:55:30;;;;;;;2.50;1.20;;;14.70;1.00;;;;;;5015391;28;20140;-39
2023/01/23 10:58:02;;;;;;;3.13;1.08;;;14.70;1.00;;;;;;5033437;28;20041;-39
2023/01/23 11:00:34;;;;;;;2.58;1.55;;;14.70;1.00;;;;;;5033599;28;20378;-39
2023/01/23 11:03:20;;;;;;;3.00;1.55;;;14.70;1.00;;;;;;5033049;28;20041;-39
2023/01/23 11:05:55;;;;;;;2.33;1.40;;;14.70;1.00;;;;;;5033369;28;20489;-38
2023/01/23 11:08:35;;;;;;;4.18;1.30;;;14.70;1.00;;;;;;5033246;28;20128;-39
2023/01/23 11:11:29;;;;;;;5.47;2.08;;;14.60;1.00;;;;;;5033147;28;20497;-38
2023/01/23 11:14:21;;;;;;;2.67;1.75;;;14.60;1.00;;;;;;5030886;28;20144;-39
2023/01/23 11:17:21;;;;;;;4.22;1.70;;;14.60;1.00;;;;;;5033214;28;20045;-39
2023/01/23 11:19:52;;;;;;;4.07;1.38;;;14.60;1.00;;;;;;5023072;28;20076;-39
2023/01/23 11:22:40;;;;;;;6.32;1.48;;;14.60;1.00;;;;;;5032825;28;20033;-39
2023/01/23 11:25:28;;;;;;;2.28;1.20;;;14.60;1.00;;;;;;5032931;28;20045;-39
2023/01/23 11:28:01;;;;;;;1.92;1.30;;;14.50;1.00;;;;;;5032981;28;20034;-39
2023/01/23 11:30:33;;;;;;;4.40;1.38;;;14.50;1.00;;;;;;5015437;28;20045;-39
2023/01/23 11:33:06;;;;;;;3.17;1.70;;;14.50;1.00;;;;;;5032699;28;20037;-39
2023/01/23 11:35:33;;;;;;;4.85;2.00;;;14.50;1.00;;;;;;5032807;28;20484;-40
2023/01/23 11:38:03;;;;;;;2.72;1.48;;;14.50;1.00;;;;;;5032844;28;20049;-39
2023/01/23 11:40:30;;;;;;;3.42;1.40;;;14.50;1.00;;;;;;5032959;28;20042;-39
2023/01/23 11:42:57;;;;;;;1.98;1.27;;;14.50;1.00;;;;;;5032389;28;20033;-39
2023/01/23 11:45:50;;;;;;;3.08;1.10;;;14.40;1.00;;;;;;5032911;28;20041;-39
2023/01/23 11:48:43;;;;;;;3.65;1.38;;;14.50;1.00;;;;;;5032758;28;20572;-39
2023/01/23 11:51:29;;;;;;;1.70;1.17;;;14.40;1.00;;;;;;5032762;28;20120;-41
2023/01/23 11:54:08;;;;;;;3.35;1.90;;;14.40;1.00;;;;;;5031661;28;20463;-39
2023/01/23 11:56:54;;;;;;;1.90;1.00;;;14.40;1.00;;;;;;5032288;28;20133;-39
2023/01/23 11:59:51;;;;;;;4.15;1.42;;;14.40;1.00;;;;;;5015113;28;20083;-39
2023/01/23 12:02:49;;;;;;;3.70;1.65;;;14.40;1.00;;;;;;5014457;28;20082;-38
2023/01/23 12:05:34;;;;;;;3.03;1.45;;;14.30;1.00;;;;;;5014699;28;20042;-39
2023/01/23 12:08:27;;;;;;;3.78;1.60;;;14.30;1.00;;;;;;5032329;28;20038;-38
2023/01/23 12:11:12;;;;;;;1.55;1.17;;;14.30;1.00;;;;;;5014705;28;20037;-39
2023/01/23 12:13:48;;;;;;;2.95;1.48;;;14.30;1.00;;;;;;5031793;28;20481;-39
2023/01/23 12:16:49;;;;;;;2.08;1.27;;;14.30;1.00;;;;;;5032159;28;20052;-39
2023/01/23 12:19:16;;;;;;;2.85;1.52;;;14.30;1.00;;;;;;4995085;28;20068;-38
2023/01/23 12:22:04;;;;;;;3.47;1.70;;;14.20;1.00;;;;;;5032024;28;20117;-38
2023/01/23 12:24:47;;;;;;;3.08;2.20;;;14.30;1.00;;;;;;5031851;28;20509;-38
2023/01/23 12:27:44;;;;;;;6.05;1.90;;;14.20;1.00;;;;;;5014231;28;20135;-39
2023/01/23 12:30:20;;;;;;;3.35;1.40;;;14.20;1.00;;;;;;5031925;28;20045;-39
2023/01/23 12:33:06;;;;;;;4.43;1.13;;;14.20;1.00;;;;;;5031630;28;20136;-39
2023/01/23 12:36:03;;;;;;;2.85;1.30;;;14.20;1.00;;;;;;5031944;28;20415;-38
2023/01/23 12:38:35;;;;;;;1.98;1.75;;;14.20;1.00;;;;;;5031752;28;20065;-38
2023/01/23 12:41:07;;;;;;;3.78;0.95;;;14.20;1.00;;;;;;5031912;28;20485;-39
2023/01/23 12:43:53;;;;;;;3.78;1.38;;;14.30;1.00;;;;;;5031507;28;20050;-39
2023/01/23 12:46:36;;;;;;;3.10;0.98;;;14.40;1.00;;;;;;5031620;28;20073;-39
2023/01/23 12:49:05;;;;;;;2.00;1.15;;;14.50;1.00;;;;;;5031495;28;20043;-40
2023/01/23 12:51:44;;;;;;;1.67;1.02;;;14.60;1.00;;;;;;5031858;28;20103;-39
2023/01/23 12:54:16;;;;;;;1.45;0.93;;;14.70;1.00;;;;;;5031318;28;20562;-39
2023/01/23 12:56:45;;;;;;;2.85;1.35;;;14.80;1.00;;;;;;5031506;28;20044;-39
2023/01/23 12:59:20;;;;;;;2.17;1.02;;;14.90;1.00;;;;;;5031531;28;20037;-39
2023/01/23 13:02:06;;;;;;;1.60;1.20;;;15.00;1.00;;;;;;5031716;28;20044;-39
2023/01/23 13:04:51;;;;;;;2.08;1.10;;;15.00;1.00;;;;;;5031383;28;20069;-39
2023/01/23 13:07:44;;;;;;;1.92;1.10;;;15.10;1.00;;;;;;5031475;28;20045;-39
2023/01/23 13:10:25;;;;;;;1.83;1.00;;;15.20;1.00;;;;;;5031497;28;20049;-39
2023/01/23 13:12:54;;;;;;;3.50;1.17;;;15.20;1.00;;;;;;5031151;28;20641;-40
2023/01/23 13:15:30;;;;;;;2.05;1.10;;;15.20;1.00;;;;;;5031329;28;20535;-39
2023/01/23 13:18:24;;;;;;;1.85;0.80;;;15.30;1.00;;;;;;5031474;28;20065;-38
2023/01/23 13:23:44;;;;;;;2.03;1.00;;;15.30;1.00;;;;;;5031008;28;20037;-39
2023/01/23 13:26:14;;;;;;;2.58;0.90;;;15.30;1.00;;;;;;5031238;28;20523;-39
2023/01/23 13:28:43;;;;;;;1.58;0.95;;;15.30;1.00;;;;;;5031459;28;20045;-39
2023/01/23 13:31:25;;;;;;;1.73;1.17;;;15.30;1.00;;;;;;5031399;28;20037;-40
2023/01/23 13:33:53;;;;;;;2.67;0.85;;;15.40;1.00;;;;;;5030909;28;20060;-40
2023/01/23 13:36:32;;;;;;;2.28;1.20;;;15.40;1.00;;;;;;5031119;28;20481;-39
2023/01/23 13:39:26;;;;;;;2.22;0.70;;;15.40;1.00;;;;;;5031245;28;20056;-39
2023/01/23 13:42:12;;;;;;;;;;;15.30;1.00;;;;;;5025425;28;20488;-39